sensor_id;sensor_type;location;lat;lon;timestamp;temperature;humidity
66522;SHT31;53349;53.538;8.584;2023-04-15T00:01:38;9.35;68.24
66522;SHT31;53349;53.538;8.584;2023-04-15T00:04:04;9.34;68.23
66522;SHT31;53349;53.538;8.584;2023-04-15T00:06:29;9.34;68.27
66522;SHT31;53349;53.538;8.584;2023-04-15T00:08:54;9.31;68.37
66522;SHT31;53349;53.538;8.584;2023-04-15T00:11:20;9.31;68.46
66522;SHT31;53349;53.538;8.584;2023-04-15T00:13:45;9.28;68.48
66522;SHT31;53349;53.538;8.584;2023-04-15T00:16:10;9.29;68.49
66522;SHT31;53349;53.538;8.584;2023-04-15T00:18:36;9.28;68.59
66522;SHT31;53349;53.538;8.584;2023-04-15T00:21:01;9.26;68.67
66522;SHT31;53349;53.538;8.584;2023-04-15T00:23:27;9.22;68.82
66522;SHT31;53349;53.538;8.584;2023-04-15T00:25:53;9.19;68.95
66522;SHT31;53349;53.538;8.584;2023-04-15T00:28:18;9.16;69.04
66522;SHT31;53349;53.538;8.584;2023-04-15T00:30:44;9.14;69.16
66522;SHT31;53349;53.538;8.584;2023-04-15T00:33:09;9.11;69.26
66522;SHT31;53349;53.538;8.584;2023-04-15T00:35:35;9.11;69.30
66522;SHT31;53349;53.538;8.584;2023-04-15T00:38:00;9.11;69.40
66522;SHT31;53349;53.538;8.584;2023-04-15T00:40:26;9.07;69.56
66522;SHT31;53349;53.538;8.584;2023-04-15T00:42:51;9.08;69.57
66522;SHT31;53349;53.538;8.584;2023-04-15T00:45:18;9.07;69.69
66522;SHT31;53349;53.538;8.584;2023-04-15T00:47:43;9.01;69.90
66522;SHT31;53349;53.538;8.584;2023-04-15T00:50:11;9.04;69.97
66522;SHT31;53349;53.538;8.584;2023-04-15T00:52:37;9.00;70.09
66522;SHT31;53349;53.538;8.584;2023-04-15T00:55:04;9.07;69.97
66522;SHT31;53349;53.538;8.584;2023-04-15T00:57:30;9.07;69.92
66522;SHT31;53349;53.538;8.584;2023-04-15T00:59:56;9.03;70.10
66522;SHT31;53349;53.538;8.584;2023-04-15T01:02:22;9.04;70.10
66522;SHT31;53349;53.538;8.584;2023-04-15T01:04:48;9.01;70.24
66522;SHT31;53349;53.538;8.584;2023-04-15T01:07:13;9.00;70.27
66522;SHT31;53349;53.538;8.584;2023-04-15T01:09:39;8.91;70.61
66522;SHT31;53349;53.538;8.584;2023-04-15T01:12:05;8.91;70.70
66522;SHT31;53349;53.538;8.584;2023-04-15T01:14:31;8.95;70.55
66522;SHT31;53349;53.538;8.584;2023-04-15T01:16:58;8.95;70.67
66522;SHT31;53349;53.538;8.584;2023-04-15T01:19:29;8.89;70.79
66522;SHT31;53349;53.538;8.584;2023-04-15T01:21:56;8.91;70.82
66522;SHT31;53349;53.538;8.584;2023-04-15T01:28:06;8.89;70.91
66522;SHT31;53349;53.538;8.584;2023-04-15T01:31:29;8.95;70.88
66522;SHT31;53349;53.538;8.584;2023-04-15T01:39:30;8.94;70.86
66522;SHT31;53349;53.538;8.584;2023-04-15T01:42:01;8.95;70.91
66522;SHT31;53349;53.538;8.584;2023-04-15T01:44:36;8.87;71.09
66522;SHT31;53349;53.538;8.584;2023-04-15T01:47:09;8.88;71.26
66522;SHT31;53349;53.538;8.584;2023-04-15T01:49:44;8.85;71.32
66522;SHT31;53349;53.538;8.584;2023-04-15T01:52:14;8.87;71.43
66522;SHT31;53349;53.538;8.584;2023-04-15T01:54:41;8.88;71.49
66522;SHT31;53349;53.538;8.584;2023-04-15T01:57:06;8.88;71.49
66522;SHT31;53349;53.538;8.584;2023-04-15T01:59:31;8.87;71.53
66522;SHT31;53349;53.538;8.584;2023-04-15T02:01:57;8.88;71.51
66522;SHT31;53349;53.538;8.584;2023-04-15T02:04:22;8.91;71.48
66522;SHT31;53349;53.538;8.584;2023-04-15T02:06:48;8.92;71.53
66522;SHT31;53349;53.538;8.584;2023-04-15T02:09:15;8.87;71.58
66522;SHT31;53349;53.538;8.584;2023-04-15T02:11:41;8.85;71.67
66522;SHT31;53349;53.538;8.584;2023-04-15T02:14:08;8.84;71.77
66522;SHT31;53349;53.538;8.584;2023-04-15T02:16:34;8.87;71.69
66522;SHT31;53349;53.538;8.584;2023-04-15T02:18:59;8.92;71.63
66522;SHT31;53349;53.538;8.584;2023-04-15T02:21:25;8.91;71.71
66522;SHT31;53349;53.538;8.584;2023-04-15T02:23:51;8.88;71.77
66522;SHT31;53349;53.538;8.584;2023-04-15T02:26:19;8.88;71.97
66522;SHT31;53349;53.538;8.584;2023-04-15T02:28:48;8.89;72.03
66522;SHT31;53349;53.538;8.584;2023-04-15T02:31:17;8.94;71.96
66522;SHT31;53349;53.538;8.584;2023-04-15T02:33:43;8.92;72.04
66522;SHT31;53349;53.538;8.584;2023-04-15T02:36:11;8.88;72.20
66522;SHT31;53349;53.538;8.584;2023-04-15T02:38:36;8.88;72.25
66522;SHT31;53349;53.538;8.584;2023-04-15T02:41:04;8.92;72.30
66522;SHT31;53349;53.538;8.584;2023-04-15T02:43:29;8.97;72.24
66522;SHT31;53349;53.538;8.584;2023-04-15T02:45:55;8.97;72.24
66522;SHT31;53349;53.538;8.584;2023-04-15T02:48:21;8.97;72.28
66522;SHT31;53349;53.538;8.584;2023-04-15T02:50:47;9.01;72.23
66522;SHT31;53349;53.538;8.584;2023-04-15T02:53:12;8.97;72.39
66522;SHT31;53349;53.538;8.584;2023-04-15T02:55:38;8.94;72.32
66522;SHT31;53349;53.538;8.584;2023-04-15T02:58:03;9.01;72.32
66522;SHT31;53349;53.538;8.584;2023-04-15T03:00:29;9.01;72.20
66522;SHT31;53349;53.538;8.584;2023-04-15T03:03:04;9.03;72.29
66522;SHT31;53349;53.538;8.584;2023-04-15T03:05:30;8.94;72.32
66522;SHT31;53349;53.538;8.584;2023-04-15T03:07:57;8.94;72.42
66522;SHT31;53349;53.538;8.584;2023-04-15T03:10:34;8.95;72.41
66522;SHT31;53349;53.538;8.584;2023-04-15T03:13:21;8.95;72.39
66522;SHT31;53349;53.538;8.584;2023-04-15T03:15:51;8.97;72.51
66522;SHT31;53349;53.538;8.584;2023-04-15T03:18:19;8.94;72.59
66522;SHT31;53349;53.538;8.584;2023-04-15T03:20:49;8.97;72.66
66522;SHT31;53349;53.538;8.584;2023-04-15T03:23:15;8.92;72.81
66522;SHT31;53349;53.538;8.584;2023-04-15T03:25:43;8.97;72.79
66522;SHT31;53349;53.538;8.584;2023-04-15T03:28:09;9.00;72.68
66522;SHT31;53349;53.538;8.584;2023-04-15T03:30:36;8.95;72.69
66522;SHT31;53349;53.538;8.584;2023-04-15T03:33:01;8.95;72.73
66522;SHT31;53349;53.538;8.584;2023-04-15T03:35:40;8.95;72.93
66522;SHT31;53349;53.538;8.584;2023-04-15T03:38:08;8.92;72.91
66522;SHT31;53349;53.538;8.584;2023-04-15T03:40:35;8.92;72.99
66522;SHT31;53349;53.538;8.584;2023-04-15T03:43:05;8.91;73.14
66522;SHT31;53349;53.538;8.584;2023-04-15T03:45:56;8.92;73.13
66522;SHT31;53349;53.538;8.584;2023-04-15T03:48:28;8.94;73.24
66522;SHT31;53349;53.538;8.584;2023-04-15T03:50:56;8.89;73.48
66522;SHT31;53349;53.538;8.584;2023-04-15T03:53:35;8.92;73.50
66522;SHT31;53349;53.538;8.584;2023-04-15T03:56:08;8.94;73.49
66522;SHT31;53349;53.538;8.584;2023-04-15T03:58:34;8.94;73.53
66522;SHT31;53349;53.538;8.584;2023-04-15T04:01:24;8.94;73.59
66522;SHT31;53349;53.538;8.584;2023-04-15T04:04:23;8.92;73.75
66522;SHT31;53349;53.538;8.584;2023-04-15T04:56:19;9.01;76.70
66522;SHT31;53349;53.538;8.584;2023-04-15T04:58:47;9.01;76.94
66522;SHT31;53349;53.538;8.584;2023-04-15T05:01:47;8.97;77.23
66522;SHT31;53349;53.538;8.584;2023-04-15T05:04:46;8.97;77.37
66522;SHT31;53349;53.538;8.584;2023-04-15T05:07:53;9.00;77.59
66522;SHT31;53349;53.538;8.584;2023-04-15T05:10:26;9.00;77.78
66522;SHT31;53349;53.538;8.584;2023-04-15T05:12:57;9.01;77.92
66522;SHT31;53349;53.538;8.584;2023-04-15T05:15:41;9.00;78.09
66522;SHT31;53349;53.538;8.584;2023-04-15T05:18:26;8.98;78.27
66522;SHT31;53349;53.538;8.584;2023-04-15T05:21:01;9.00;78.36
66522;SHT31;53349;53.538;8.584;2023-04-15T05:23:33;8.95;78.47
66522;SHT31;53349;53.538;8.584;2023-04-15T05:26:09;8.95;78.71
66522;SHT31;53349;53.538;8.584;2023-04-15T05:28:57;8.95;78.78
66522;SHT31;53349;53.538;8.584;2023-04-15T05:31:42;8.95;78.75
66522;SHT31;53349;53.538;8.584;2023-04-15T05:34:13;8.95;78.80
66522;SHT31;53349;53.538;8.584;2023-04-15T05:36:41;9.00;78.86
66522;SHT31;53349;53.538;8.584;2023-04-15T05:39:13;8.97;78.84
66522;SHT31;53349;53.538;8.584;2023-04-15T05:41:41;9.00;78.85
66522;SHT31;53349;53.538;8.584;2023-04-15T05:44:13;9.01;78.81
66522;SHT31;53349;53.538;8.584;2023-04-15T05:46:42;9.03;78.80
66522;SHT31;53349;53.538;8.584;2023-04-15T05:49:10;9.01;78.80
66522;SHT31;53349;53.538;8.584;2023-04-15T05:51:37;9.07;78.74
66522;SHT31;53349;53.538;8.584;2023-04-15T05:54:03;9.07;78.81
66522;SHT31;53349;53.538;8.584;2023-04-15T05:56:31;9.05;78.99
66522;SHT31;53349;53.538;8.584;2023-04-15T05:59:03;9.07;79.07
66522;SHT31;53349;53.538;8.584;2023-04-15T06:01:44;9.05;79.33
66522;SHT31;53349;53.538;8.584;2023-04-15T06:04:14;9.08;79.51
66522;SHT31;53349;53.538;8.584;2023-04-15T06:06:41;9.10;79.50
66522;SHT31;53349;53.538;8.584;2023-04-15T06:09:28;9.10;79.55
66522;SHT31;53349;53.538;8.584;2023-04-15T06:29:10;9.07;80.63
66522;SHT31;53349;53.538;8.584;2023-04-15T06:32:03;9.03;80.70
66522;SHT31;53349;53.538;8.584;2023-04-15T06:34:29;9.03;80.81
66522;SHT31;53349;53.538;8.584;2023-04-15T06:36:54;9.07;80.85
66522;SHT31;53349;53.538;8.584;2023-04-15T06:39:21;9.11;80.90
66522;SHT31;53349;53.538;8.584;2023-04-15T06:41:46;9.12;80.77
66522;SHT31;53349;53.538;8.584;2023-04-15T06:44:11;9.12;80.86
66522;SHT31;53349;53.538;8.584;2023-04-15T06:46:37;9.18;81.01
66522;SHT31;53349;53.538;8.584;2023-04-15T06:49:02;9.18;80.99
66522;SHT31;53349;53.538;8.584;2023-04-15T06:51:27;9.16;81.04
66522;SHT31;53349;53.538;8.584;2023-04-15T06:53:54;9.21;81.17
66522;SHT31;53349;53.538;8.584;2023-04-15T06:56:20;9.22;81.02
66522;SHT31;53349;53.538;8.584;2023-04-15T06:58:48;9.24;80.94
66522;SHT31;53349;53.538;8.584;2023-04-15T07:01:35;9.25;80.94
66522;SHT31;53349;53.538;8.584;2023-04-15T07:04:07;9.25;81.05
66522;SHT31;53349;53.538;8.584;2023-04-15T07:06:35;9.24;81.01
66522;SHT31;53349;53.538;8.584;2023-04-15T07:40:03;9.40;81.01
66522;SHT31;53349;53.538;8.584;2023-04-15T07:42:29;9.47;81.24
66522;SHT31;53349;53.538;8.584;2023-04-15T07:44:54;9.55;81.20
66522;SHT31;53349;53.538;8.584;2023-04-15T07:47:19;9.59;81.15
66522;SHT31;53349;53.538;8.584;2023-04-15T07:49:44;9.62;81.02
66522;SHT31;53349;53.538;8.584;2023-04-15T07:52:11;9.69;80.92
66522;SHT31;53349;53.538;8.584;2023-04-15T07:54:36;9.72;80.88
66522;SHT31;53349;53.538;8.584;2023-04-15T07:57:02;9.75;80.76
66522;SHT31;53349;53.538;8.584;2023-04-15T07:59:28;9.73;80.79
66522;SHT31;53349;53.538;8.584;2023-04-15T08:01:55;9.77;80.75
66522;SHT31;53349;53.538;8.584;2023-04-15T08:04:20;9.79;80.71
66522;SHT31;53349;53.538;8.584;2023-04-15T08:06:46;9.72;80.57
66522;SHT31;53349;53.538;8.584;2023-04-15T08:09:11;9.69;80.55
66522;SHT31;53349;53.538;8.584;2023-04-15T08:11:39;9.70;80.56
66522;SHT31;53349;53.538;8.584;2023-04-15T08:14:04;9.66;80.74
66522;SHT31;53349;53.538;8.584;2023-04-15T08:16:30;9.70;80.85
66522;SHT31;53349;53.538;8.584;2023-04-15T08:18:56;9.69;81.05
66522;SHT31;53349;53.538;8.584;2023-04-15T08:21:22;9.69;80.94
66522;SHT31;53349;53.538;8.584;2023-04-15T08:23:49;9.67;81.23
66522;SHT31;53349;53.538;8.584;2023-04-15T08:26:15;9.72;81.23
66522;SHT31;53349;53.538;8.584;2023-04-15T08:28:41;9.70;81.17
66522;SHT31;53349;53.538;8.584;2023-04-15T08:31:07;9.73;81.24
66522;SHT31;53349;53.538;8.584;2023-04-15T08:33:35;9.75;81.11
66522;SHT31;53349;53.538;8.584;2023-04-15T08:36:00;9.75;81.07
66522;SHT31;53349;53.538;8.584;2023-04-15T08:38:26;9.75;81.07
66522;SHT31;53349;53.538;8.584;2023-04-15T08:40:51;9.76;81.20
66522;SHT31;53349;53.538;8.584;2023-04-15T08:43:22;9.73;80.97
66522;SHT31;53349;53.538;8.584;2023-04-15T08:45:49;9.72;80.91
66522;SHT31;53349;53.538;8.584;2023-04-15T08:48:16;9.73;81.05
66522;SHT31;53349;53.538;8.584;2023-04-15T08:50:44;9.70;80.97
66522;SHT31;53349;53.538;8.584;2023-04-15T08:53:10;9.65;80.98
66522;SHT31;53349;53.538;8.584;2023-04-15T08:55:41;9.57;81.04
66522;SHT31;53349;53.538;8.584;2023-04-15T08:58:07;9.55;81.26
66522;SHT31;53349;53.538;8.584;2023-04-15T09:00:32;9.56;81.37
66522;SHT31;53349;53.538;8.584;2023-04-15T09:02:58;9.55;81.45
66522;SHT31;53349;53.538;8.584;2023-04-15T09:05:25;9.53;81.45
66522;SHT31;53349;53.538;8.584;2023-04-15T09:07:54;9.53;81.62
66522;SHT31;53349;53.538;8.584;2023-04-15T09:10:20;9.52;81.69
66522;SHT31;53349;53.538;8.584;2023-04-15T09:12:45;9.50;81.62
66522;SHT31;53349;53.538;8.584;2023-04-15T09:15:11;9.52;81.85
66522;SHT31;53349;53.538;8.584;2023-04-15T09:17:41;9.53;81.86
66522;SHT31;53349;53.538;8.584;2023-04-15T09:20:11;9.55;81.83
66522;SHT31;53349;53.538;8.584;2023-04-15T09:22:37;9.56;81.92
66522;SHT31;53349;53.538;8.584;2023-04-15T09:25:25;9.52;82.04
66522;SHT31;53349;53.538;8.584;2023-04-15T09:27:53;9.55;82.06
66522;SHT31;53349;53.538;8.584;2023-04-15T09:30:19;9.52;82.14
66522;SHT31;53349;53.538;8.584;2023-04-15T09:33:03;9.55;82.24
66522;SHT31;53349;53.538;8.584;2023-04-15T09:35:29;9.55;82.21
66522;SHT31;53349;53.538;8.584;2023-04-15T09:38:03;9.59;82.31
66522;SHT31;53349;53.538;8.584;2023-04-15T09:40:35;9.60;82.37
66522;SHT31;53349;53.538;8.584;2023-04-15T09:43:03;9.63;82.36
66522;SHT31;53349;53.538;8.584;2023-04-15T09:45:31;9.60;82.31
66522;SHT31;53349;53.538;8.584;2023-04-15T09:47:59;9.66;82.32
66522;SHT31;53349;53.538;8.584;2023-04-15T09:50:28;9.70;82.62
66522;SHT31;53349;53.538;8.584;2023-04-15T09:52:54;9.72;82.66
66522;SHT31;53349;53.538;8.584;2023-04-15T09:55:23;9.75;82.69
66522;SHT31;53349;53.538;8.584;2023-04-15T09:57:50;9.76;82.52
66522;SHT31;53349;53.538;8.584;2023-04-15T10:00:16;9.79;82.56
66522;SHT31;53349;53.538;8.584;2023-04-15T10:02:42;9.77;82.51
66522;SHT31;53349;53.538;8.584;2023-04-15T10:05:14;9.80;82.51
66522;SHT31;53349;53.538;8.584;2023-04-15T10:07:40;9.79;82.39
66522;SHT31;53349;53.538;8.584;2023-04-15T10:10:06;9.80;82.31
66522;SHT31;53349;53.538;8.584;2023-04-15T10:12:37;9.80;82.35
66522;SHT31;53349;53.538;8.584;2023-04-15T10:15:05;9.83;82.32
66522;SHT31;53349;53.538;8.584;2023-04-15T10:17:32;9.83;82.34
66522;SHT31;53349;53.538;8.584;2023-04-15T11:41:47;10.54;81.76
66522;SHT31;53349;53.538;8.584;2023-04-15T11:44:18;10.54;81.59
66522;SHT31;53349;53.538;8.584;2023-04-15T11:46:43;10.51;81.54
66522;SHT31;53349;53.538;8.584;2023-04-15T11:49:09;10.55;81.64
66522;SHT31;53349;53.538;8.584;2023-04-15T11:51:34;10.61;81.66
66522;SHT31;53349;53.538;8.584;2023-04-15T11:54:00;10.61;81.48
66522;SHT31;53349;53.538;8.584;2023-04-15T11:56:25;10.64;81.68
66522;SHT31;53349;53.538;8.584;2023-04-15T11:58:52;10.72;81.66
66522;SHT31;53349;53.538;8.584;2023-04-15T12:10:31;10.79;80.73
66522;SHT31;53349;53.538;8.584;2023-04-15T12:16:19;10.79;80.35
66522;SHT31;53349;53.538;8.584;2023-04-15T12:19:19;10.88;80.35
66522;SHT31;53349;53.538;8.584;2023-04-15T12:21:47;10.89;80.13
66522;SHT31;53349;53.538;8.584;2023-04-15T12:24:13;10.92;80.18
66522;SHT31;53349;53.538;8.584;2023-04-15T12:26:44;10.93;80.18
66522;SHT31;53349;53.538;8.584;2023-04-15T12:29:13;10.97;80.11
66522;SHT31;53349;53.538;8.584;2023-04-15T12:31:52;11.05;79.81
66522;SHT31;53349;53.538;8.584;2023-04-15T12:34:30;11.07;79.88
66522;SHT31;53349;53.538;8.584;2023-04-15T12:36:58;11.09;79.67
66522;SHT31;53349;53.538;8.584;2023-04-15T12:39:29;11.10;79.73
66522;SHT31;53349;53.538;8.584;2023-04-15T12:41:55;11.20;79.70
66522;SHT31;53349;53.538;8.584;2023-04-15T12:44:23;11.28;79.59
66522;SHT31;53349;53.538;8.584;2023-04-15T12:46:50;11.37;79.53
66522;SHT31;53349;53.538;8.584;2023-04-15T12:49:15;11.48;79.41
66522;SHT31;53349;53.538;8.584;2023-04-15T12:51:43;11.63;79.20
66522;SHT31;53349;53.538;8.584;2023-04-15T12:54:11;11.74;78.65
66522;SHT31;53349;53.538;8.584;2023-04-15T12:56:38;11.85;78.42
66522;SHT31;53349;53.538;8.584;2023-04-15T12:59:03;11.98;78.04
66522;SHT31;53349;53.538;8.584;2023-04-15T13:01:29;12.04;77.68
66522;SHT31;53349;53.538;8.584;2023-04-15T13:03:56;12.09;77.27
66522;SHT31;53349;53.538;8.584;2023-04-15T13:06:24;12.14;76.87
66522;SHT31;53349;53.538;8.584;2023-04-15T13:08:50;12.18;76.70
66522;SHT31;53349;53.538;8.584;2023-04-15T13:11:17;12.22;76.34
66522;SHT31;53349;53.538;8.584;2023-04-15T13:13:43;12.32;76.87
66522;SHT31;53349;53.538;8.584;2023-04-15T13:16:09;12.42;77.19
66522;SHT31;53349;53.538;8.584;2023-04-15T13:18:35;12.55;77.43
66522;SHT31;53349;53.538;8.584;2023-04-15T13:21:00;12.63;77.42
66522;SHT31;53349;53.538;8.584;2023-04-15T13:23:26;12.76;76.75
66522;SHT31;53349;53.538;8.584;2023-04-15T13:25:52;12.84;76.38
66522;SHT31;53349;53.538;8.584;2023-04-15T13:28:17;12.94;76.31
66522;SHT31;53349;53.538;8.584;2023-04-15T13:30:43;13.00;75.99
66522;SHT31;53349;53.538;8.584;2023-04-15T13:33:08;13.12;75.86
66522;SHT31;53349;53.538;8.584;2023-04-15T13:35:36;13.25;75.67
66522;SHT31;53349;53.538;8.584;2023-04-15T13:38:01;13.41;75.30
66522;SHT31;53349;53.538;8.584;2023-04-15T13:40:27;13.52;74.52
66522;SHT31;53349;53.538;8.584;2023-04-15T13:42:53;13.56;73.83
66522;SHT31;53349;53.538;8.584;2023-04-15T13:45:20;13.65;73.57
66522;SHT31;53349;53.538;8.584;2023-04-15T13:47:46;13.70;73.67
66522;SHT31;53349;53.538;8.584;2023-04-15T13:50:11;13.73;73.12
66522;SHT31;53349;53.538;8.584;2023-04-15T13:52:38;13.72;73.02
66522;SHT31;53349;53.538;8.584;2023-04-15T13:55:04;13.73;72.73
66522;SHT31;53349;53.538;8.584;2023-04-15T13:57:31;13.80;72.36
66522;SHT31;53349;53.538;8.584;2023-04-15T13:59:57;13.86;72.09
66522;SHT31;53349;53.538;8.584;2023-04-15T14:02:22;13.91;72.03
66522;SHT31;53349;53.538;8.584;2023-04-15T14:04:48;14.02;71.48
66522;SHT31;53349;53.538;8.584;2023-04-15T14:07:14;14.03;70.95
66522;SHT31;53349;53.538;8.584;2023-04-15T14:09:39;14.03;71.01
66522;SHT31;53349;53.538;8.584;2023-04-15T14:12:05;14.06;71.10
66522;SHT31;53349;53.538;8.584;2023-04-15T14:14:31;14.09;71.09
66522;SHT31;53349;53.538;8.584;2023-04-15T14:16:57;14.14;70.62
66522;SHT31;53349;53.538;8.584;2023-04-15T14:19:23;14.20;70.54
66522;SHT31;53349;53.538;8.584;2023-04-15T14:21:48;14.24;70.49
66522;SHT31;53349;53.538;8.584;2023-04-15T14:24:13;14.30;70.42
66522;SHT31;53349;53.538;8.584;2023-04-15T14:26:43;14.34;70.17
66522;SHT31;53349;53.538;8.584;2023-04-15T14:29:08;14.31;70.01
66522;SHT31;53349;53.538;8.584;2023-04-15T14:31:39;14.34;69.89
66522;SHT31;53349;53.538;8.584;2023-04-15T14:34:05;14.40;68.74
66522;SHT31;53349;53.538;8.584;2023-04-15T14:36:30;14.42;68.49
66522;SHT31;53349;53.538;8.584;2023-04-15T14:38:56;14.51;68.22
66522;SHT31;53349;53.538;8.584;2023-04-15T14:41:22;14.55;67.26
66522;SHT31;53349;53.538;8.584;2023-04-15T14:43:47;14.57;67.06
66522;SHT31;53349;53.538;8.584;2023-04-15T14:46:14;14.55;67.02
66522;SHT31;53349;53.538;8.584;2023-04-15T14:48:39;14.52;66.94
66522;SHT31;53349;53.538;8.584;2023-04-15T14:51:05;14.52;65.96
66522;SHT31;53349;53.538;8.584;2023-04-15T14:53:31;14.51;65.32
66522;SHT31;53349;53.538;8.584;2023-04-15T14:55:56;14.49;65.48
66522;SHT31;53349;53.538;8.584;2023-04-15T14:58:21;14.52;65.66
66522;SHT31;53349;53.538;8.584;2023-04-15T15:00:48;14.47;65.77
66522;SHT31;53349;53.538;8.584;2023-04-15T15:03:14;14.47;65.46
66522;SHT31;53349;53.538;8.584;2023-04-15T15:05:41;14.37;65.55
66522;SHT31;53349;53.538;8.584;2023-04-15T15:08:07;14.33;65.80
66522;SHT31;53349;53.538;8.584;2023-04-15T15:10:33;14.26;65.39
66522;SHT31;53349;53.538;8.584;2023-04-15T15:12:59;14.23;64.87
66522;SHT31;53349;53.538;8.584;2023-04-15T15:15:28;14.20;65.23
66522;SHT31;53349;53.538;8.584;2023-04-15T15:17:54;14.17;65.41
66522;SHT31;53349;53.538;8.584;2023-04-15T15:20:20;14.18;65.61
66522;SHT31;53349;53.538;8.584;2023-04-15T15:22:47;14.17;65.11
66522;SHT31;53349;53.538;8.584;2023-04-15T15:25:14;14.13;65.45
66522;SHT31;53349;53.538;8.584;2023-04-15T15:27:42;14.03;65.69
66522;SHT31;53349;53.538;8.584;2023-04-15T15:30:09;14.03;65.93
66522;SHT31;53349;53.538;8.584;2023-04-15T15:32:38;13.96;65.60
66522;SHT31;53349;53.538;8.584;2023-04-15T15:35:03;13.93;65.27
66522;SHT31;53349;53.538;8.584;2023-04-15T15:37:29;13.91;64.87
66522;SHT31;53349;53.538;8.584;2023-04-15T15:40:09;13.96;65.33
66522;SHT31;53349;53.538;8.584;2023-04-15T15:42:35;14.00;64.84
66522;SHT31;53349;53.538;8.584;2023-04-15T15:45:02;14.00;63.76
66522;SHT31;53349;53.538;8.584;2023-04-15T15:47:29;13.96;63.80
66522;SHT31;53349;53.538;8.584;2023-04-15T15:49:56;14.03;63.89
66522;SHT31;53349;53.538;8.584;2023-04-15T15:52:23;14.00;64.08
66522;SHT31;53349;53.538;8.584;2023-04-15T15:54:48;14.02;64.15
66522;SHT31;53349;53.538;8.584;2023-04-15T15:57:13;13.97;64.02
66522;SHT31;53349;53.538;8.584;2023-04-15T15:59:38;13.99;64.21
66522;SHT31;53349;53.538;8.584;2023-04-15T16:02:04;13.97;63.59
66522;SHT31;53349;53.538;8.584;2023-04-15T16:04:30;13.97;63.62
66522;SHT31;53349;53.538;8.584;2023-04-15T16:06:55;13.95;63.91
66522;SHT31;53349;53.538;8.584;2023-04-15T16:09:23;13.96;63.83
66522;SHT31;53349;53.538;8.584;2023-04-15T16:11:50;13.91;63.04
66522;SHT31;53349;53.538;8.584;2023-04-15T16:14:15;13.93;63.19
66522;SHT31;53349;53.538;8.584;2023-04-15T16:16:41;13.90;63.35
66522;SHT31;53349;53.538;8.584;2023-04-15T16:19:06;13.87;63.46
66522;SHT31;53349;53.538;8.584;2023-04-15T16:21:33;13.87;63.40
66522;SHT31;53349;53.538;8.584;2023-04-15T16:23:58;13.79;63.80
66522;SHT31;53349;53.538;8.584;2023-04-15T16:26:24;13.80;64.05
66522;SHT31;53349;53.538;8.584;2023-04-15T16:28:49;13.76;64.18
66522;SHT31;53349;53.538;8.584;2023-04-15T16:31:14;13.76;63.87
66522;SHT31;53349;53.538;8.584;2023-04-15T16:33:40;13.73;63.39
66522;SHT31;53349;53.538;8.584;2023-04-15T16:36:06;13.70;63.51
66522;SHT31;53349;53.538;8.584;2023-04-15T16:38:33;13.65;63.85
66522;SHT31;53349;53.538;8.584;2023-04-15T16:41:00;13.63;63.92
66522;SHT31;53349;53.538;8.584;2023-04-15T16:43:26;13.61;63.90
66522;SHT31;53349;53.538;8.584;2023-04-15T16:45:52;13.61;64.10
66522;SHT31;53349;53.538;8.584;2023-04-15T16:48:18;13.63;64.00
66522;SHT31;53349;53.538;8.584;2023-04-15T16:50:47;13.61;63.90
66522;SHT31;53349;53.538;8.584;2023-04-15T16:53:14;13.62;63.49
66522;SHT31;53349;53.538;8.584;2023-04-15T16:55:39;13.61;63.31
66522;SHT31;53349;53.538;8.584;2023-04-15T16:58:04;13.58;63.01
66522;SHT31;53349;53.538;8.584;2023-04-15T17:00:31;13.56;63.21
66522;SHT31;53349;53.538;8.584;2023-04-15T17:02:56;13.54;63.28
66522;SHT31;53349;53.538;8.584;2023-04-15T17:05:22;13.51;63.06
66522;SHT31;53349;53.538;8.584;2023-04-15T17:07:47;13.48;63.38
66522;SHT31;53349;53.538;8.584;2023-04-15T17:10:12;13.45;63.27
66522;SHT31;53349;53.538;8.584;2023-04-15T17:12:38;13.44;63.54
66522;SHT31;53349;53.538;8.584;2023-04-15T17:15:06;13.42;63.68
66522;SHT31;53349;53.538;8.584;2023-04-15T17:17:35;13.42;63.91
66522;SHT31;53349;53.538;8.584;2023-04-15T17:20:00;13.41;63.79
66522;SHT31;53349;53.538;8.584;2023-04-15T17:22:26;13.42;64.03
66522;SHT31;53349;53.538;8.584;2023-04-15T17:24:51;13.39;64.03
66522;SHT31;53349;53.538;8.584;2023-04-15T17:27:17;13.41;64.02
66522;SHT31;53349;53.538;8.584;2023-04-15T17:29:44;13.38;64.07
66522;SHT31;53349;53.538;8.584;2023-04-15T17:32:09;13.36;64.24
66522;SHT31;53349;53.538;8.584;2023-04-15T17:34:35;13.32;64.46
66522;SHT31;53349;53.538;8.584;2023-04-15T17:37:02;13.29;64.68
66522;SHT31;53349;53.538;8.584;2023-04-15T17:39:27;13.29;64.79
66522;SHT31;53349;53.538;8.584;2023-04-15T17:41:55;13.28;65.00
66522;SHT31;53349;53.538;8.584;2023-04-15T17:44:22;13.27;65.20
66522;SHT31;53349;53.538;8.584;2023-04-15T17:46:47;13.27;65.25
66522;SHT31;53349;53.538;8.584;2023-04-15T17:49:13;13.21;65.37
66522;SHT31;53349;53.538;8.584;2023-04-15T17:51:41;13.19;65.44
66522;SHT31;53349;53.538;8.584;2023-04-15T17:54:06;13.22;65.50
66522;SHT31;53349;53.538;8.584;2023-04-15T17:56:32;13.15;65.62
66522;SHT31;53349;53.538;8.584;2023-04-15T17:58:58;13.12;65.84
66522;SHT31;53349;53.538;8.584;2023-04-15T18:01:23;13.17;65.92
66522;SHT31;53349;53.538;8.584;2023-04-15T18:03:52;13.12;65.92
66522;SHT31;53349;53.538;8.584;2023-04-15T18:06:18;13.12;65.93
66522;SHT31;53349;53.538;8.584;2023-04-15T18:08:44;13.11;65.89
66522;SHT31;53349;53.538;8.584;2023-04-15T18:11:12;13.08;65.50
66522;SHT31;53349;53.538;8.584;2023-04-15T18:13:37;13.04;65.56
66522;SHT31;53349;53.538;8.584;2023-04-15T18:16:02;13.03;65.75
66522;SHT31;53349;53.538;8.584;2023-04-15T18:18:29;12.98;65.83
66522;SHT31;53349;53.538;8.584;2023-04-15T18:20:54;12.96;65.88
66522;SHT31;53349;53.538;8.584;2023-04-15T18:23:19;12.91;65.87
66522;SHT31;53349;53.538;8.584;2023-04-15T18:25:45;12.93;65.86
66522;SHT31;53349;53.538;8.584;2023-04-15T18:28:10;12.90;65.96
66522;SHT31;53349;53.538;8.584;2023-04-15T18:30:35;12.88;65.86
66522;SHT31;53349;53.538;8.584;2023-04-15T18:33:01;12.86;65.80
66522;SHT31;53349;53.538;8.584;2023-04-15T18:35:27;12.84;65.98
66522;SHT31;53349;53.538;8.584;2023-04-15T18:37:53;12.81;65.84
66522;SHT31;53349;53.538;8.584;2023-04-15T18:40:21;12.81;65.69
66522;SHT31;53349;53.538;8.584;2023-04-15T18:42:47;12.81;65.76
66522;SHT31;53349;53.538;8.584;2023-04-15T18:45:12;12.80;65.81
66522;SHT31;53349;53.538;8.584;2023-04-15T18:47:40;12.77;65.81
66522;SHT31;53349;53.538;8.584;2023-04-15T18:50:06;12.76;65.79
66522;SHT31;53349;53.538;8.584;2023-04-15T18:52:34;12.72;65.86
66522;SHT31;53349;53.538;8.584;2023-04-15T18:55:00;12.72;65.92
66522;SHT31;53349;53.538;8.584;2023-04-15T18:57:25;12.70;66.02
66522;SHT31;53349;53.538;8.584;2023-04-15T18:59:51;12.68;66.12
66522;SHT31;53349;53.538;8.584;2023-04-15T19:02:16;12.70;66.22
66522;SHT31;53349;53.538;8.584;2023-04-15T19:04:44;12.66;66.40
66522;SHT31;53349;53.538;8.584;2023-04-15T19:07:09;12.60;66.53